createdAt,value
2022-09-12T00:01:40.842Z,99666.82
2022-09-12T00:04:12.137Z,99666.82
2022-09-12T00:06:41.107Z,99670.06
2022-09-12T00:09:13.007Z,99670.06
2022-09-12T00:11:44.485Z,99674.10
2022-09-12T00:14:16.352Z,99656.03
2022-09-12T00:16:46.186Z,99663.84
2022-09-12T00:19:15.545Z,99660.88
2022-09-12T00:21:44.611Z,99656.03
2022-09-12T00:24:14.032Z,99664.66
2022-09-12T00:26:43.024Z,99662.25
2022-09-12T00:29:20.082Z,99656.58
2022-09-12T00:31:49.437Z,99657.10
2022-09-12T00:34:18.590Z,99643.36
2022-09-12T00:36:47.688Z,99639.00
2022-09-12T00:39:18.045Z,99643.87
2022-09-12T00:41:47.277Z,99638.98
2022-09-12T00:44:30.102Z,99645.22
2022-09-12T00:47:04.741Z,99632.78
2022-09-12T00:49:39.747Z,99624.30
2022-09-12T00:52:33.090Z,99624.30
2022-09-12T00:55:04.918Z,99631.84
2022-09-12T00:57:39.415Z,99624.45
2022-09-12T01:00:17.038Z,99638.48
2022-09-12T01:02:49.271Z,99636.38
2022-09-12T01:05:18.940Z,99642.56
2022-09-12T01:07:50.404Z,99642.56
2022-09-12T01:10:20.711Z,99630.86
2022-09-12T01:12:50.003Z,99617.12
2022-09-12T01:15:19.077Z,99621.33
2022-09-12T01:17:50.990Z,99618.84
2022-09-12T01:20:26.831Z,99618.84
2022-09-12T01:23:19.695Z,99619.34
2022-09-12T01:26:17.365Z,99622.85
2022-09-12T01:29:21.264Z,99617.98
2022-09-12T01:32:18.543Z,99623.62
2022-09-12T01:35:02.120Z,99626.70
2022-09-12T01:37:40.158Z,99617.31
2022-09-12T01:40:13.721Z,99612.92
2022-09-12T01:43:01.297Z,99616.30
2022-09-12T01:45:39.091Z,99616.75
2022-09-12T01:48:16.577Z,99607.28
2022-09-12T01:50:53.894Z,99607.28
2022-09-12T01:53:28.308Z,99611.30
2022-09-12T01:56:06.783Z,99611.30
2022-09-12T01:58:47.550Z,99609.14
2022-09-12T02:01:19.452Z,99609.14
2022-09-12T02:04:00.028Z,99615.66
2022-09-12T02:06:31.872Z,99615.66
2022-09-12T02:09:04.451Z,99609.39
2022-09-12T02:11:36.547Z,99609.39
2022-09-12T02:14:11.316Z,99619.34
2022-09-12T02:16:46.442Z,99614.24
2022-09-12T02:19:18.563Z,99603.27
2022-09-12T02:21:59.149Z,99611.59
2022-09-12T02:24:33.903Z,99612.19
2022-09-12T02:27:14.738Z,99612.19
2022-09-12T02:29:45.783Z,99606.89
2022-09-12T02:32:23.617Z,99606.89
2022-09-12T02:35:01.246Z,99608.31
2022-09-12T02:37:54.243Z,99608.31
2022-09-12T02:40:23.631Z,99614.09
2022-09-12T02:42:53.368Z,99614.09
2022-09-12T02:45:23.949Z,99605.84
2022-09-12T02:48:24.594Z,99621.61
2022-09-12T02:50:54.421Z,99617.89
2022-09-12T02:53:23.972Z,99617.56
2022-09-12T02:55:54.020Z,99617.56
2022-09-12T02:58:26.227Z,99615.30
2022-09-12T03:01:14.535Z,99618.60
2022-09-12T03:03:52.191Z,99608.53
2022-09-12T03:06:26.648Z,99613.09
2022-09-12T03:09:01.709Z,99604.84
2022-09-12T03:12:02.562Z,99608.44
2022-09-12T03:14:53.997Z,99601.38
2022-09-12T03:17:50.126Z,99594.80
2022-09-12T03:20:27.634Z,99595.41
2022-09-12T03:22:59.737Z,99594.61
2022-09-12T03:25:37.489Z,99606.73
2022-09-12T03:28:09.514Z,99603.33
2022-09-12T03:30:53.681Z,99595.92
2022-09-12T03:33:24.363Z,99603.12
2022-09-12T03:35:54.524Z,99597.72
2022-09-12T03:38:23.645Z,99600.67
2022-09-12T03:40:54.862Z,99592.76
2022-09-12T03:43:23.373Z,99590.05
2022-09-12T03:45:53.633Z,99596.81
2022-09-12T03:48:22.991Z,99603.33
2022-09-12T03:50:51.983Z,99603.33
2022-09-12T03:53:21.012Z,99605.27
2022-09-12T03:55:50.034Z,99602.02
2022-09-12T03:58:19.013Z,99600.81
2022-09-12T04:00:48.145Z,99613.59
2022-09-12T04:03:17.326Z,99608.59
2022-09-12T04:05:47.255Z,99608.54
2022-09-12T04:08:16.704Z,99609.02
2022-09-12T04:10:46.974Z,99609.02
2022-09-12T04:13:16.273Z,99603.13
2022-09-12T04:15:45.266Z,99600.27
2022-09-12T04:18:14.212Z,99608.86
2022-09-12T04:20:43.249Z,99608.86
2022-09-12T04:23:12.296Z,99616.20
2022-09-12T04:25:41.341Z,99616.20
2022-09-12T04:28:10.298Z,99618.49
2022-09-12T04:30:39.464Z,99618.49
2022-09-12T04:33:08.395Z,99626.50
2022-09-12T04:35:37.962Z,99621.50
2022-09-12T04:38:07.001Z,99621.50
2022-09-12T04:40:36.622Z,99612.27
2022-09-12T04:43:10.147Z,99621.25
2022-09-12T04:45:37.793Z,99627.22
2022-09-12T04:48:06.892Z,99632.88
2022-09-12T04:50:35.896Z,99640.75
2022-09-12T04:53:04.926Z,99646.72
2022-09-12T04:55:35.884Z,99646.72
2022-09-12T04:58:04.951Z,99646.78
2022-09-12T05:00:35.120Z,99646.78
2022-09-12T05:03:04.187Z,99636.45
2022-09-12T05:05:33.247Z,99624.12
2022-09-12T05:08:02.163Z,99624.56
2022-09-12T05:10:31.497Z,99617.19
2022-09-12T05:13:00.601Z,99611.84
2022-09-12T05:15:29.535Z,99610.52
2022-09-12T05:17:58.615Z,99603.32
2022-09-12T05:20:27.739Z,99608.21
2022-09-12T05:22:56.754Z,99609.59
2022-09-12T05:25:25.753Z,99614.64
2022-09-12T05:27:55.013Z,99614.64
2022-09-12T05:30:24.002Z,99627.01
2022-09-12T05:32:53.004Z,99634.67
2022-09-12T05:35:22.050Z,99634.67
2022-09-12T05:37:51.034Z,99617.34
2022-09-12T05:40:21.847Z,99628.66
2022-09-12T05:42:50.809Z,99628.66
2022-09-12T05:45:19.772Z,99635.95
2022-09-12T05:47:49.243Z,99640.59
2022-09-12T05:50:18.290Z,99653.78
2022-09-12T05:52:47.664Z,99661.90
2022-09-12T05:55:17.380Z,99661.39
2022-09-12T05:57:46.861Z,99642.75
2022-09-12T06:00:16.733Z,99644.39
2022-09-12T06:02:45.721Z,99617.65
2022-09-12T06:05:14.950Z,99614.41
2022-09-12T06:07:43.931Z,99614.41
2022-09-12T06:10:13.457Z,99633.13
2022-09-12T06:12:43.902Z,99633.13
2022-09-12T06:15:14.585Z,99631.77
2022-09-12T06:17:44.429Z,99631.77
2022-09-12T06:20:14.759Z,99613.13
2022-09-12T06:22:43.718Z,99605.03
2022-09-12T06:25:12.673Z,99605.03
2022-09-12T06:27:41.763Z,99611.46
2022-09-12T06:30:11.720Z,99618.09
2022-09-12T06:32:40.841Z,99622.72
2022-09-12T06:35:10.256Z,99622.72
2022-09-12T06:37:39.230Z,99631.27
2022-09-12T06:40:11.072Z,99642.33
2022-09-12T06:42:40.025Z,99640.30
2022-09-12T06:45:10.098Z,99641.18
2022-09-12T06:47:39.076Z,99638.45
2022-09-12T06:50:09.204Z,99638.45
2022-09-12T06:52:38.289Z,99647.89
2022-09-12T06:55:07.871Z,99647.89
2022-09-12T06:57:38.501Z,99656.04
2022-09-12T07:00:08.227Z,99634.33
2022-09-12T07:02:37.209Z,99627.06
2022-09-12T07:05:06.665Z,99627.52
2022-09-12T07:07:36.226Z,99626.97
2022-09-12T07:10:06.745Z,99629.42
2022-09-12T07:12:35.772Z,99634.30
2022-09-12T07:15:05.057Z,99634.30
2022-09-12T07:17:34.220Z,99629.32
2022-09-12T07:20:03.744Z,99634.35
2022-09-12T07:22:32.783Z,99613.58
2022-09-12T07:25:02.392Z,99613.58
2022-09-12T07:27:31.398Z,99633.17
2022-09-12T07:30:00.893Z,99638.89
2022-09-12T07:32:29.870Z,99623.11
2022-09-12T07:34:58.840Z,99623.11
2022-09-12T07:37:29.707Z,99647.18
2022-09-12T07:39:59.525Z,99647.04
2022-09-12T07:42:28.672Z,99639.56
2022-09-12T07:44:57.633Z,99644.16
2022-09-12T07:47:26.542Z,99640.51
2022-09-12T07:49:55.608Z,99634.48
2022-09-12T07:52:24.587Z,99634.48
2022-09-12T07:54:53.540Z,99629.25
2022-09-12T07:57:22.537Z,99637.34
2022-09-12T07:59:53.249Z,99634.70
2022-09-12T08:02:23.050Z,99629.58
2022-09-12T08:04:53.025Z,99616.30
2022-09-12T08:07:22.169Z,99614.59
2022-09-12T08:09:51.203Z,99607.63
2022-09-12T08:12:20.705Z,99604.67
2022-09-12T08:14:49.642Z,99604.67
2022-09-12T08:17:18.682Z,99601.92
2022-09-12T08:19:48.490Z,99628.13
2022-09-12T08:22:19.033Z,99618.66
2022-09-12T08:24:47.991Z,99618.66
2022-09-12T08:27:17.030Z,99612.14
2022-09-12T08:29:46.031Z,99612.14
2022-09-12T08:32:15.087Z,99605.58
2022-09-12T08:34:44.143Z,99580.38
2022-09-12T08:37:13.158Z,99592.20
2022-09-12T08:39:42.380Z,99602.59
2022-09-12T08:42:13.821Z,99595.73
2022-09-12T08:45:02.134Z,99601.53
2022-09-12T08:47:43.253Z,99596.38
2022-09-12T08:50:20.935Z,99582.14
2022-09-12T08:53:03.266Z,99579.16
2022-09-12T08:55:35.497Z,99579.16
2022-09-12T08:58:10.787Z,99578.48
2022-09-12T09:00:42.802Z,99578.48
2022-09-12T09:03:30.050Z,99581.70
2022-09-12T09:06:18.580Z,99589.85
2022-09-12T09:09:07.579Z,99583.59
2022-09-12T09:12:05.397Z,99583.41
2022-09-12T09:14:52.906Z,99584.17
2022-09-12T09:17:42.697Z,99585.84
2022-09-12T09:20:28.261Z,99585.84
2022-09-12T09:23:09.460Z,99593.84
2022-09-12T09:25:59.823Z,99580.03
2022-09-12T09:28:38.031Z,99574.23
2022-09-12T09:31:08.781Z,99563.34
2022-09-12T09:33:38.777Z,99566.82
2022-09-12T09:36:10.739Z,99566.82
2022-09-12T09:39:06.743Z,99575.80
2022-09-12T09:41:41.150Z,99564.73
2022-09-12T09:44:10.846Z,99557.33
2022-09-12T09:46:39.842Z,99552.74
2022-09-12T09:49:10.573Z,99552.74
2022-09-12T09:51:42.244Z,99552.23
2022-09-12T09:54:32.343Z,99552.23
2022-09-12T09:57:01.553Z,99547.76
2022-09-12T09:59:35.297Z,99534.13
2022-09-12T10:02:24.376Z,99534.13
2022-09-12T10:04:59.092Z,99533.12
2022-09-12T10:07:28.881Z,99533.12
2022-09-12T10:10:12.944Z,99541.48
2022-09-12T10:12:42.344Z,99533.24
2022-09-12T10:15:34.380Z,99533.24
2022-09-12T10:18:03.977Z,99536.09
2022-09-12T10:20:45.000Z,99547.75
2022-09-12T10:23:25.793Z,99550.87
2022-09-12T10:25:58.005Z,99550.87
2022-09-12T10:28:39.648Z,99555.72
2022-09-12T10:31:10.935Z,99561.70
2022-09-12T10:33:52.478Z,99580.16
2022-09-12T10:36:25.142Z,99584.66
2022-09-12T10:38:57.001Z,99590.08
2022-09-12T10:41:26.676Z,99595.10
2022-09-12T10:43:59.120Z,99595.10
2022-09-12T10:46:30.417Z,99592.91
2022-09-12T10:49:17.465Z,99584.00
2022-09-12T10:51:46.529Z,99584.00
2022-09-12T10:54:18.340Z,99590.63
2022-09-12T10:56:52.971Z,99587.72
2022-09-12T10:59:31.543Z,99590.63
2022-09-12T11:02:23.073Z,99580.14
2022-09-12T11:05:31.667Z,99580.14
2022-09-12T11:08:12.287Z,99585.56
2022-09-12T11:10:44.625Z,99582.52
2022-09-12T11:13:19.311Z,99579.27
2022-09-12T11:15:56.964Z,99578.57
2022-09-12T11:18:48.505Z,99578.57
2022-09-12T11:21:41.552Z,99573.41
2022-09-12T11:24:29.800Z,99572.04
2022-09-12T11:27:13.695Z,99560.27
2022-09-12T11:29:57.537Z,99560.27
2022-09-12T11:32:53.634Z,99552.36
2022-09-12T11:35:28.323Z,99552.36
2022-09-12T11:38:16.653Z,99550.04
2022-09-12T11:40:52.423Z,99550.04
2022-09-12T11:43:27.435Z,99542.11
2022-09-12T11:45:59.821Z,99527.87
2022-09-12T11:48:44.941Z,99530.88
2022-09-12T11:51:22.955Z,99530.88
2022-09-12T11:54:13.340Z,99535.36
2022-09-12T11:56:47.513Z,99545.39
2022-09-12T11:59:19.424Z,99543.23
2022-09-12T12:01:51.469Z,99539.81
2022-09-12T12:04:23.331Z,99536.73
2022-09-12T12:07:04.292Z,99533.94
2022-09-12T12:09:33.932Z,99533.94
2022-09-12T12:12:08.838Z,99523.70
2022-09-12T12:14:43.509Z,99514.92
2022-09-12T12:17:18.715Z,99515.64
2022-09-12T12:19:51.098Z,99501.01
2022-09-12T12:22:25.743Z,99497.82
2022-09-12T12:25:09.792Z,99494.80
2022-09-12T12:27:58.830Z,99494.80
2022-09-12T12:30:43.685Z,99489.59
2022-09-12T12:33:15.511Z,99488.48
2022-09-12T12:36:02.695Z,99490.27
2022-09-12T12:38:37.361Z,99490.27
2022-09-12T12:41:24.382Z,99493.67
2022-09-12T12:43:56.723Z,99480.20
2022-09-12T12:46:28.946Z,99486.09
2022-09-12T12:49:06.931Z,99486.09
2022-09-12T12:51:47.976Z,99483.27
2022-09-12T12:54:36.502Z,99467.22
2022-09-12T12:57:30.060Z,99467.22
2022-09-12T13:00:02.070Z,99470.39
2022-09-12T13:02:34.066Z,99466.88
2022-09-12T13:05:06.538Z,99470.59
2022-09-12T13:07:41.407Z,99462.33
2022-09-12T13:10:12.198Z,99470.09
2022-09-12T13:12:49.224Z,99469.59
2022-09-12T13:15:41.012Z,99475.29
2022-09-12T13:18:13.287Z,99477.19
2022-09-12T13:20:59.905Z,99463.23
2022-09-12T13:23:32.840Z,99468.07
2022-09-12T13:26:03.679Z,99478.27
2022-09-12T13:28:33.153Z,99478.27
2022-09-12T13:31:10.807Z,99488.44
2022-09-12T13:33:45.561Z,99482.92
2022-09-12T13:36:40.502Z,99488.13
2022-09-12T13:39:32.392Z,99481.73
2022-09-12T13:42:16.441Z,99477.20
2022-09-12T13:44:58.085Z,99487.56
2022-09-12T13:47:29.990Z,99488.56
2022-09-12T13:49:59.874Z,99488.06
2022-09-12T13:52:31.872Z,99496.28
2022-09-12T13:55:03.123Z,99496.28
2022-09-12T13:57:42.364Z,99488.86
2022-09-12T14:00:22.735Z,99484.75
2022-09-12T14:02:56.942Z,99482.19
2022-09-12T14:05:27.796Z,99470.91
2022-09-12T14:08:06.770Z,99483.78
2022-09-12T14:10:41.603Z,99481.97
2022-09-12T14:13:16.268Z,99476.58
2022-09-12T14:15:52.770Z,99494.58
2022-09-12T14:18:27.430Z,99477.13
2022-09-12T14:21:00.222Z,99482.30
2022-09-12T14:23:33.965Z,99470.07
2022-09-12T14:26:06.772Z,99470.07
2022-09-12T14:28:37.920Z,99461.90
2022-09-12T14:31:10.659Z,99460.14
2022-09-12T14:33:51.701Z,99452.44
2022-09-12T14:36:23.633Z,99458.59
2022-09-12T14:38:55.607Z,99462.19
2022-09-12T14:41:30.763Z,99453.00
2022-09-12T14:44:02.283Z,99460.39
2022-09-12T14:46:37.604Z,99460.22
2022-09-12T14:49:27.720Z,99461.88
2022-09-12T14:52:00.326Z,99453.34
2022-09-12T14:54:37.681Z,99458.95
2022-09-12T14:57:30.868Z,99457.98
2022-09-12T15:00:20.084Z,99453.32
2022-09-12T15:02:50.788Z,99451.09
2022-09-12T15:05:25.773Z,99448.55
2022-09-12T15:07:59.817Z,99443.95
2022-09-12T15:10:39.980Z,99448.11
2022-09-12T15:13:15.025Z,99441.11
2022-09-12T15:15:47.123Z,99435.22
2022-09-12T15:18:16.740Z,99435.22
2022-09-12T15:20:47.987Z,99426.14
2022-09-12T15:23:19.987Z,99436.87
2022-09-12T15:25:49.187Z,99429.82
2022-09-12T15:28:21.219Z,99429.82
2022-09-12T15:30:52.786Z,99434.55
2022-09-12T15:33:26.492Z,99417.88
2022-09-12T15:35:55.712Z,99420.67
2022-09-12T15:38:26.685Z,99425.08
2022-09-12T15:40:56.092Z,99421.71
2022-09-12T15:43:26.456Z,99420.68
2022-09-12T15:45:55.755Z,99421.23
2022-09-12T15:48:24.750Z,99413.50
2022-09-12T15:50:53.821Z,99413.50
2022-09-12T15:53:22.802Z,99416.88
2022-09-12T15:55:51.840Z,99416.88
2022-09-12T15:58:20.873Z,99427.61
2022-09-12T16:00:50.148Z,99434.58
2022-09-12T16:03:25.025Z,99437.55
2022-09-12T16:06:01.835Z,99437.55
2022-09-12T16:08:33.293Z,99411.37
2022-09-12T16:11:14.135Z,99411.37
2022-09-12T16:13:45.892Z,99426.95
2022-09-12T16:16:14.955Z,99430.86
2022-09-12T16:18:44.158Z,99430.86
2022-09-12T16:21:15.512Z,99424.30
2022-09-12T16:23:48.587Z,99424.30
2022-09-12T16:26:18.382Z,99432.23
2022-09-12T16:28:47.902Z,99432.23
2022-09-12T16:31:17.049Z,99435.98
2022-09-12T16:33:46.402Z,99435.98
2022-09-12T16:36:17.180Z,99428.87
2022-09-12T16:38:54.356Z,99434.62
2022-09-12T16:41:25.656Z,99434.62
2022-09-12T16:43:55.515Z,99444.70
2022-09-12T16:46:28.969Z,99447.64
2022-09-12T16:48:59.678Z,99458.95
2022-09-12T16:51:31.364Z,99454.97
2022-09-12T16:54:00.598Z,99454.97
2022-09-12T16:56:29.614Z,99442.36
2022-09-12T16:58:58.615Z,99459.53
2022-09-12T17:01:28.587Z,99448.31
2022-09-12T17:03:59.501Z,99441.94
2022-09-12T17:06:29.312Z,99440.42
2022-09-12T17:09:02.237Z,99455.48
2022-09-12T17:11:34.118Z,99460.17
2022-09-12T17:14:06.901Z,99459.19
2022-09-12T17:16:38.927Z,99459.19
2022-09-12T17:19:08.924Z,99464.95
2022-09-12T17:21:37.907Z,99455.72
2022-09-12T17:24:06.985Z,99460.34
2022-09-12T17:26:36.010Z,99456.02
2022-09-12T17:29:05.054Z,99462.77
2022-09-12T17:31:34.091Z,99462.77
2022-09-12T17:34:03.791Z,99458.20
2022-09-12T17:36:32.848Z,99458.20
2022-09-12T17:39:03.889Z,99447.08
2022-09-12T17:41:33.954Z,99447.08
2022-09-12T17:44:03.826Z,99462.16
2022-09-12T17:46:40.781Z,99469.00
2022-09-12T17:49:15.385Z,99469.08
2022-09-12T17:51:45.241Z,99469.08
2022-09-12T17:54:16.964Z,99448.41
2022-09-12T17:56:49.166Z,99448.41
2022-09-12T17:59:20.622Z,99458.97
2022-09-12T18:02:07.972Z,99442.39
2022-09-12T18:04:37.600Z,99443.56
2022-09-12T18:07:08.304Z,99443.56
2022-09-12T18:09:37.351Z,99442.36
2022-09-12T18:12:07.141Z,99445.84
2022-09-12T18:14:36.206Z,99445.84
2022-09-12T18:17:07.899Z,99439.41
2022-09-12T18:19:37.409Z,99448.61
2022-09-12T18:22:07.274Z,99444.72
2022-09-12T18:24:36.372Z,99459.02
2022-09-12T18:27:05.577Z,99459.02
2022-09-12T18:29:34.678Z,99438.09
2022-09-12T18:32:04.044Z,99438.09
2022-09-12T18:34:33.075Z,99445.63
2022-09-12T18:37:03.734Z,99445.63
2022-09-12T18:39:32.810Z,99458.17
2022-09-12T18:42:01.850Z,99455.70
2022-09-12T18:44:31.311Z,99458.23
2022-09-12T18:47:02.082Z,99459.74
2022-09-12T18:49:31.826Z,99446.90
2022-09-12T18:52:00.910Z,99446.90
2022-09-12T18:54:29.928Z,99433.95
2022-09-12T18:56:58.993Z,99428.76
2022-09-12T18:59:28.028Z,99413.12
2022-09-12T19:01:57.106Z,99406.64
2022-09-12T19:04:26.215Z,99400.44
2022-09-12T19:06:55.277Z,99397.09
2022-09-12T19:09:24.329Z,99401.98
2022-09-12T19:11:53.347Z,99399.98
2022-09-12T19:14:25.069Z,99399.98
2022-09-12T19:16:54.469Z,99403.86
2022-09-12T19:19:23.670Z,99399.05
2022-09-12T19:21:52.676Z,99399.05
2022-09-12T19:24:22.031Z,99380.19
2022-09-12T19:26:51.985Z,99380.19
2022-09-12T19:29:21.111Z,99379.08
2022-09-12T19:31:50.072Z,99369.13
2022-09-12T19:34:19.210Z,99370.50
2022-09-12T19:36:48.281Z,99372.77
2022-09-12T19:39:20.358Z,99372.77
2022-09-12T19:41:49.360Z,99372.95
2022-09-12T19:44:19.444Z,99371.77
2022-09-12T19:46:48.529Z,99383.45
2022-09-12T19:49:17.707Z,99388.45
2022-09-12T19:51:46.749Z,99398.19
2022-09-12T19:54:15.752Z,99392.13
2022-09-12T19:56:44.802Z,99404.69
2022-09-12T19:59:14.019Z,99390.30
2022-09-12T20:01:43.189Z,99390.30
2022-09-12T20:04:12.295Z,99381.11
2022-09-12T20:06:41.365Z,99395.15
2022-09-12T20:09:10.435Z,99392.06
2022-09-12T20:11:39.456Z,99392.06
2022-09-12T20:14:08.451Z,99397.06
2022-09-12T20:16:37.576Z,99397.80
2022-09-12T20:19:08.967Z,99397.89
2022-09-12T20:21:38.283Z,99397.89
2022-09-12T20:24:13.011Z,99384.81
2022-09-12T20:26:42.326Z,99393.28
2022-09-12T20:29:11.898Z,99398.99
2022-09-12T20:31:42.195Z,99403.61
2022-09-12T20:34:14.106Z,99402.00
2022-09-12T20:36:43.173Z,99399.20
2022-09-12T20:39:17.935Z,99399.20
2022-09-12T20:41:47.064Z,99399.91
2022-09-12T20:44:16.317Z,99380.88
2022-09-12T20:46:45.495Z,99384.23
2022-09-12T20:49:14.611Z,99384.23
2022-09-12T20:51:43.683Z,99379.27
2022-09-12T20:54:12.837Z,99378.53
2022-09-12T20:56:41.765Z,99381.52
2022-09-12T20:59:13.522Z,99386.73
2022-09-12T21:01:42.588Z,99384.06
2022-09-12T21:04:14.886Z,99387.28
2022-09-12T21:06:42.375Z,99387.28
2022-09-12T21:09:11.664Z,99390.63
2022-09-12T21:11:40.771Z,99368.72
2022-09-12T21:14:09.716Z,99372.67
2022-09-12T21:16:38.879Z,99368.33
2022-09-12T21:19:08.434Z,99367.72
2022-09-12T21:21:37.517Z,99367.72
2022-09-12T21:24:06.646Z,99371.62
2022-09-12T21:26:35.618Z,99363.28
2022-09-12T21:29:04.704Z,99360.42
2022-09-12T21:31:33.886Z,99362.37
2022-09-12T21:34:03.460Z,99362.97
2022-09-12T21:36:32.470Z,99362.97
2022-09-12T21:39:01.564Z,99343.38
2022-09-12T21:41:30.556Z,99352.86
2022-09-12T21:43:59.530Z,99344.55
2022-09-12T21:46:28.607Z,99343.52
2022-09-12T21:48:57.788Z,99338.11
2022-09-12T21:51:26.824Z,99333.46
2022-09-12T21:53:55.869Z,99333.33
2022-09-12T21:56:25.117Z,99333.33
2022-09-12T21:58:54.113Z,99334.23
2022-09-12T22:01:23.319Z,99328.41
2022-09-12T22:03:52.423Z,99326.52
2022-09-12T22:06:22.664Z,99331.25
2022-09-12T22:08:51.866Z,99326.86
2022-09-12T22:11:21.482Z,99328.35
2022-09-12T22:13:50.569Z,99328.35
2022-09-12T22:16:19.730Z,99335.17
2022-09-12T22:18:50.433Z,99331.36
2022-09-12T22:21:22.304Z,99331.36
2022-09-12T22:24:09.693Z,99328.84
2022-09-12T22:26:44.139Z,99334.10
2022-09-12T22:29:13.540Z,99339.09
2022-09-12T22:31:43.137Z,99344.36
2022-09-12T22:34:12.519Z,99344.36
2022-09-12T22:36:42.064Z,99350.19
2022-09-12T22:39:11.117Z,99349.47
2022-09-12T22:41:40.098Z,99352.17
2022-09-12T22:44:09.041Z,99347.88
2022-09-12T22:46:38.709Z,99347.88
2022-09-12T22:49:08.608Z,99358.52
2022-09-12T22:51:37.648Z,99354.47
2022-09-12T22:54:07.312Z,99354.47
2022-09-12T22:56:36.524Z,99345.17
2022-09-12T22:59:05.917Z,99347.53
2022-09-12T23:01:35.783Z,99350.62
2022-09-12T23:04:05.665Z,99355.17
2022-09-12T23:06:34.743Z,99352.56
2022-09-12T23:09:03.701Z,99363.08
2022-09-12T23:11:32.722Z,99359.61
2022-09-12T23:14:01.763Z,99349.86
2022-09-12T23:16:32.432Z,99349.86
2022-09-12T23:19:01.507Z,99342.27
2022-09-12T23:21:30.547Z,99339.07
2022-09-12T23:23:59.706Z,99328.77
2022-09-12T23:26:29.868Z,99323.97
2022-09-12T23:29:01.253Z,99319.36
2022-09-12T23:31:32.459Z,99313.23
2022-09-12T23:34:04.050Z,99301.63
2022-09-12T23:36:33.082Z,99314.49
2022-09-12T23:39:02.599Z,99312.94
2022-09-12T23:41:31.712Z,99309.92
2022-09-12T23:44:00.949Z,99316.63
2022-09-12T23:46:29.921Z,99314.08
2022-09-12T23:48:58.884Z,99313.81
2022-09-12T23:51:27.870Z,99316.52
2022-09-12T23:53:56.831Z,99315.67
2022-09-12T23:56:26.167Z,99305.13
2022-09-12T23:58:55.207Z,99305.13
